createdAt,value
2019-05-03T00:00:03.069Z,10.9
2019-05-03T00:01:03.700Z,10.9
2019-05-03T00:02:02.814Z,10.9
2019-05-03T00:03:03.813Z,10.9
2019-05-03T00:04:02.815Z,10.9
2019-05-03T00:05:03.835Z,10.9
2019-05-03T00:06:03.722Z,10.9
2019-05-03T00:07:03.798Z,10.9
2019-05-03T00:08:03.670Z,10.9
2019-05-03T00:09:03.654Z,10.9
2019-05-03T00:10:03.683Z,10.9
2019-05-03T00:11:02.961Z,10.9
2019-05-03T00:12:03.397Z,10.9
2019-05-03T00:13:04.186Z,10.9
2019-05-03T00:14:03.375Z,10.9
2019-05-03T00:15:03.223Z,10.9
2019-05-03T00:16:03.875Z,10.9
2019-05-03T00:17:03.381Z,10.9
2019-05-03T00:18:03.493Z,10.9
2019-05-03T00:19:03.524Z,10.9
2019-05-03T00:20:03.129Z,10.9
2019-05-03T00:21:03.351Z,10.8
2019-05-03T00:22:03.135Z,10.9
2019-05-03T00:23:03.180Z,10.9
2019-05-03T00:24:03.288Z,10.9
2019-05-03T00:25:08.633Z,10.9
2019-05-03T00:26:02.902Z,10.9
2019-05-03T00:27:02.896Z,10.9
2019-05-03T00:28:02.831Z,10.8
2019-05-03T00:29:02.727Z,10.8
2019-05-03T00:30:03.118Z,10.9
2019-05-03T00:31:02.923Z,10.9
2019-05-03T00:32:03.074Z,10.8
2019-05-03T00:33:03.137Z,10.8
2019-05-03T00:34:02.913Z,10.8
2019-05-03T00:35:03.819Z,10.8
2019-05-03T00:36:03.265Z,10.8
2019-05-03T00:37:03.253Z,10.8
2019-05-03T00:38:03.535Z,10.8
2019-05-03T00:39:03.343Z,10.8
2019-05-03T00:40:03.716Z,10.8
2019-05-03T00:41:03.634Z,10.8
2019-05-03T00:42:03.137Z,10.9
2019-05-03T00:43:03.244Z,10.8
2019-05-03T00:44:03.240Z,10.8
2019-05-03T00:45:03.394Z,10.8
2019-05-03T00:46:03.192Z,10.8
2019-05-03T00:47:02.980Z,10.8
2019-05-03T00:48:03.163Z,10.8
2019-05-03T00:49:03.963Z,10.8
2019-05-03T00:50:03.123Z,10.8
2019-05-03T00:51:02.965Z,10.8
2019-05-03T00:52:03.125Z,10.8
2019-05-03T00:53:02.673Z,10.9
2019-05-03T00:54:04.130Z,10.8
2019-05-03T00:55:19.339Z,10.9
2019-05-03T00:56:03.566Z,10.8
2019-05-03T00:57:03.637Z,10.8
2019-05-03T00:58:03.706Z,10.8
2019-05-03T00:59:02.786Z,10.8
2019-05-03T01:00:03.355Z,10.8
2019-05-03T01:01:03.591Z,10.8
2019-05-03T01:02:03.735Z,10.8
2019-05-03T01:03:03.487Z,10.8
2019-05-03T01:04:03.540Z,10.8
2019-05-03T01:05:03.649Z,10.8
2019-05-03T01:06:03.551Z,10.8
2019-05-03T01:07:03.231Z,10.8
2019-05-03T01:08:03.474Z,10.8
2019-05-03T01:09:03.179Z,10.8
2019-05-03T01:10:03.267Z,10.8
2019-05-03T01:11:03.200Z,10.8
2019-05-03T01:12:03.299Z,10.8
2019-05-03T01:13:03.005Z,10.8
2019-05-03T01:14:03.353Z,10.8
2019-05-03T01:15:03.242Z,10.8
2019-05-03T01:16:03.036Z,10.8
2019-05-03T01:17:03.210Z,10.8
2019-05-03T01:18:02.702Z,10.8
2019-05-03T01:19:03.273Z,10.8
2019-05-03T01:20:03.140Z,10.8
2019-05-03T01:21:02.960Z,10.7
2019-05-03T01:22:03.700Z,10.8
2019-05-03T01:23:03.179Z,10.8
2019-05-03T01:24:03.787Z,10.8
2019-05-03T01:25:03.247Z,10.7
2019-05-03T01:26:02.775Z,10.8
2019-05-03T01:27:02.726Z,10.7
2019-05-03T01:28:03.802Z,10.7
2019-05-03T01:29:03.593Z,10.8
2019-05-03T01:30:03.705Z,10.8
2019-05-03T01:31:03.379Z,10.8
2019-05-03T01:32:03.391Z,10.8
2019-05-03T01:33:03.299Z,10.8
2019-05-03T01:34:03.771Z,10.7
2019-05-03T01:35:03.564Z,10.7
2019-05-03T01:36:03.525Z,10.7
2019-05-03T01:37:03.246Z,10.7
2019-05-03T01:38:03.417Z,10.7
2019-05-03T01:39:03.204Z,10.7
2019-05-03T01:40:03.390Z,10.7
2019-05-03T01:41:03.275Z,10.7
2019-05-03T01:42:02.947Z,10.6
2019-05-03T01:43:03.311Z,10.6
2019-05-03T01:44:03.053Z,10.6
2019-05-03T01:45:03.032Z,10.6
2019-05-03T01:46:03.017Z,10.6
2019-05-03T01:47:03.050Z,10.6
2019-05-03T01:48:02.937Z,10.6
2019-05-03T01:49:02.936Z,10.6
2019-05-03T01:50:03.141Z,10.6
2019-05-03T01:51:03.005Z,10.6
2019-05-03T01:52:03.584Z,10.6
2019-05-03T01:53:03.099Z,10.6
2019-05-03T01:54:02.964Z,10.6
2019-05-03T01:55:03.960Z,10.6
2019-05-03T01:56:03.821Z,10.6
2019-05-03T01:57:03.762Z,10.6
2019-05-03T01:58:02.945Z,10.6
2019-05-03T01:59:03.463Z,10.6
2019-05-03T02:00:03.766Z,10.6
2019-05-03T02:01:03.619Z,10.6
2019-05-03T02:02:03.297Z,10.5
2019-05-03T02:03:03.671Z,10.5
2019-05-03T02:04:03.543Z,10.5
2019-05-03T02:05:03.779Z,10.5
2019-05-03T02:06:03.563Z,10.5
2019-05-03T02:07:03.626Z,10.5
2019-05-03T02:08:03.502Z,10.4
2019-05-03T02:09:03.389Z,10.4
2019-05-03T02:10:03.466Z,10.4
2019-05-03T02:11:03.487Z,10.4
2019-05-03T02:12:03.105Z,10.4
2019-05-03T02:13:03.076Z,10.4
2019-05-03T02:14:03.195Z,10.4
2019-05-03T02:15:03.123Z,10.4
2019-05-03T02:16:02.898Z,10.4
2019-05-03T02:17:03.251Z,10.3
2019-05-03T02:18:03.041Z,10.4
2019-05-03T02:19:03.017Z,10.4
2019-05-03T02:20:03.214Z,10.3
2019-05-03T02:21:02.888Z,10.3
2019-05-03T02:22:03.132Z,10.3
2019-05-03T02:23:03.903Z,10.4
2019-05-03T02:24:02.843Z,10.3
2019-05-03T02:25:02.553Z,10.3
2019-05-03T02:26:03.304Z,10.3
2019-05-03T02:27:03.922Z,10.3
2019-05-03T02:28:02.733Z,10.3
2019-05-03T02:29:03.177Z,10.3
2019-05-03T02:30:03.594Z,10.2
2019-05-03T02:31:03.978Z,10.2
2019-05-03T02:32:03.760Z,10.2
2019-05-03T02:33:04.502Z,10.1
2019-05-03T02:34:03.940Z,10.1
2019-05-03T02:35:03.934Z,10.1
2019-05-03T02:36:04.141Z,10
2019-05-03T02:37:03.547Z,10
2019-05-03T02:38:03.963Z,10
2019-05-03T02:39:03.495Z,9.9
2019-05-03T02:40:04.633Z,9.9
2019-05-03T02:41:03.395Z,9.9
2019-05-03T02:42:12.054Z,9.9
2019-05-03T02:43:05.819Z,9.9
2019-05-03T02:44:06.414Z,9.9
2019-05-03T02:45:06.223Z,9.9
2019-05-03T02:46:06.210Z,9.9
2019-05-03T02:47:05.812Z,9.9
2019-05-03T02:48:06.171Z,9.9
2019-05-03T02:49:06.722Z,9.9
2019-05-03T02:50:06.038Z,9.8
2019-05-03T02:51:02.953Z,9.8
2019-05-03T02:52:06.943Z,9.8
2019-05-03T02:53:05.970Z,9.8
2019-05-03T02:54:05.786Z,9.8
2019-05-03T02:55:02.918Z,9.8
2019-05-03T02:56:25.337Z,9.8
2019-05-03T02:57:02.823Z,9.8
2019-05-03T02:58:05.985Z,9.8
2019-05-03T02:59:06.558Z,9.8
2019-05-03T03:00:05.353Z,9.8
2019-05-03T03:01:06.881Z,9.8
2019-05-03T03:02:06.657Z,9.8
2019-05-03T03:03:05.731Z,9.8
2019-05-03T03:04:05.703Z,9.8
2019-05-03T03:05:06.039Z,9.8
2019-05-03T03:06:07.284Z,9.8
2019-05-03T03:07:05.992Z,9.8
2019-05-03T03:08:06.176Z,9.7
2019-05-03T03:09:05.664Z,9.8
2019-05-03T03:10:05.605Z,9.7
2019-05-03T03:11:06.653Z,9.6
2019-05-03T03:12:06.409Z,9.7
2019-05-03T03:13:06.144Z,9.6
2019-05-03T03:14:06.122Z,9.7
2019-05-03T03:15:06.476Z,9.6
2019-05-03T03:16:03.017Z,9.7
2019-05-03T03:17:06.900Z,9.6
2019-05-03T03:18:06.461Z,9.6
2019-05-03T03:19:07.219Z,9.6
2019-05-03T03:20:05.773Z,9.6
2019-05-03T03:21:06.060Z,9.6
2019-05-03T03:22:06.225Z,9.6
2019-05-03T03:23:02.800Z,9.6
2019-05-03T03:24:06.491Z,9.6
2019-05-03T03:25:05.626Z,9.6
2019-05-03T03:26:06.398Z,9.7
2019-05-03T03:27:05.586Z,9.6
2019-05-03T03:28:05.584Z,9.6
2019-05-03T03:29:06.341Z,9.6
2019-05-03T03:30:08.240Z,9.6
2019-05-03T03:31:08.936Z,9.6
2019-05-03T03:32:10.210Z,9.6
2019-05-03T03:33:09.548Z,9.6
2019-05-03T03:34:08.909Z,9.6
2019-05-03T03:35:14.700Z,9.6
2019-05-03T03:36:58.240Z,9.6
2019-05-03T03:37:10.809Z,9.6
2019-05-03T03:38:05.913Z,9.6
2019-05-03T03:39:06.294Z,9.6
2019-05-03T03:40:06.369Z,9.6
2019-05-03T03:41:06.264Z,9.6
2019-05-03T03:42:05.574Z,9.6
2019-05-03T03:43:05.693Z,9.7
2019-05-03T03:44:02.928Z,9.7
2019-05-03T03:45:06.471Z,9.7
2019-05-03T03:46:05.565Z,9.7
2019-05-03T03:47:05.675Z,9.7
2019-05-03T03:48:05.411Z,9.8
2019-05-03T03:49:02.934Z,9.8
2019-05-03T03:50:06.176Z,9.8
2019-05-03T03:51:05.304Z,9.8
2019-05-03T03:52:06.375Z,9.8
2019-05-03T03:53:02.961Z,9.8
2019-05-03T03:54:06.252Z,9.8
2019-05-03T03:55:06.720Z,9.8
2019-05-03T03:56:05.929Z,9.8
2019-05-03T03:57:08.559Z,9.8
2019-05-03T03:58:06.816Z,9.8
2019-05-03T03:59:06.034Z,9.8
2019-05-03T04:00:05.681Z,9.8
2019-05-03T04:01:06.351Z,9.8
2019-05-03T04:02:06.306Z,9.8
2019-05-03T04:03:06.200Z,9.8
2019-05-03T04:04:05.796Z,9.8
2019-05-03T04:05:05.800Z,9.8
2019-05-03T04:06:06.071Z,9.8
2019-05-03T04:07:07.000Z,9.8
2019-05-03T04:08:05.986Z,9.8
2019-05-03T04:09:05.351Z,9.8
2019-05-03T04:10:05.976Z,9.8
2019-05-03T04:11:06.627Z,9.8
2019-05-03T04:12:06.449Z,9.8
2019-05-03T04:13:05.657Z,9.7
2019-05-03T04:14:05.637Z,9.8
2019-05-03T04:15:06.015Z,9.8
2019-05-03T04:16:05.788Z,9.8
2019-05-03T04:17:06.162Z,9.8
2019-05-03T04:18:05.891Z,9.8
2019-05-03T04:19:06.075Z,9.8
2019-05-03T04:20:05.216Z,9.8
2019-05-03T04:21:05.798Z,9.8
2019-05-03T04:22:06.235Z,9.8
2019-05-03T04:23:05.543Z,9.8
2019-05-03T04:24:02.903Z,9.8
2019-05-03T04:25:06.157Z,9.8
2019-05-03T04:26:03.134Z,9.8
2019-05-03T04:27:26.203Z,9.8
2019-05-03T04:28:06.153Z,9.8
2019-05-03T04:29:05.709Z,9.8
2019-05-03T04:30:06.091Z,9.8
2019-05-03T04:31:06.494Z,9.8
2019-05-03T04:32:06.360Z,9.8
2019-05-03T04:33:06.482Z,9.8
2019-05-03T04:34:05.314Z,9.7
2019-05-03T04:35:05.640Z,9.8
2019-05-03T04:36:05.750Z,9.8
2019-05-03T04:37:05.758Z,9.8
2019-05-03T04:38:05.906Z,9.8
2019-05-03T04:39:05.594Z,9.8
2019-05-03T04:40:06.594Z,9.8
2019-05-03T04:41:06.408Z,9.8
2019-05-03T04:42:07.189Z,9.8
2019-05-03T04:43:06.616Z,9.8
2019-05-03T04:44:06.736Z,9.7
2019-05-03T04:45:06.184Z,9.6
2019-05-03T04:46:06.996Z,9.7
2019-05-03T04:47:07.343Z,9.7
2019-05-03T04:48:06.391Z,9.7
2019-05-03T04:49:05.991Z,9.7
2019-05-03T04:50:05.979Z,9.7
2019-05-03T04:51:06.301Z,9.6
2019-05-03T04:52:06.293Z,9.7
2019-05-03T04:53:05.923Z,9.7
2019-05-03T04:54:05.565Z,9.7
2019-05-03T04:55:06.922Z,9.7
2019-05-03T04:56:06.082Z,9.7
2019-05-03T04:57:07.001Z,9.7
2019-05-03T04:58:05.016Z,9.7
2019-05-03T04:59:05.418Z,9.6
2019-05-03T05:00:11.355Z,9.7
2019-05-03T05:01:02.720Z,9.7
2019-05-03T05:02:02.766Z,9.6
2019-05-03T05:03:06.323Z,9.6
2019-05-03T05:04:05.571Z,9.7
2019-05-03T05:05:02.994Z,9.7
2019-05-03T05:06:02.861Z,9.7
2019-05-03T05:07:02.966Z,9.8
2019-05-03T05:08:05.239Z,9.7
2019-05-03T05:09:05.217Z,9.7
2019-05-03T05:10:05.468Z,9.7
2019-05-03T05:11:10.605Z,9.8
2019-05-03T05:12:06.033Z,9.7
2019-05-03T05:13:05.730Z,9.8
2019-05-03T05:14:02.981Z,9.7
2019-05-03T05:15:05.429Z,9.7
2019-05-03T05:16:06.132Z,9.6
2019-05-03T05:17:06.461Z,9.7
2019-05-03T05:18:06.396Z,9.7
2019-05-03T05:19:06.000Z,9.7
2019-05-03T05:20:05.490Z,9.7
2019-05-03T05:21:04.725Z,9.7
2019-05-03T05:22:06.159Z,9.8
2019-05-03T05:23:04.745Z,9.8
2019-05-03T05:24:05.873Z,9.7
2019-05-03T05:25:04.679Z,9.6
2019-05-03T05:26:05.077Z,9.7
2019-05-03T05:27:05.462Z,9.7
2019-05-03T05:28:04.910Z,9.7
2019-05-03T05:29:05.443Z,9.6
2019-05-03T05:30:04.726Z,9.6
2019-05-03T05:31:04.902Z,9.7
2019-05-03T05:32:05.463Z,9.6
2019-05-03T05:33:05.544Z,9.7
2019-05-03T05:34:06.364Z,9.6
2019-05-03T05:35:05.316Z,9.7
2019-05-03T05:36:05.018Z,9.8
2019-05-03T05:37:02.999Z,9.6
2019-05-03T05:38:04.834Z,9.6
2019-05-03T05:39:05.361Z,9.7
2019-05-03T05:40:05.401Z,9.7
2019-05-03T05:41:02.852Z,9.6
2019-05-03T05:42:04.717Z,9.7
2019-05-03T05:43:05.158Z,9.7
2019-05-03T05:44:05.606Z,9.8
2019-05-03T05:45:05.130Z,9.8
2019-05-03T05:46:05.539Z,9.8
2019-05-03T05:47:04.869Z,9.8
2019-05-03T05:48:05.387Z,9.9
2019-05-03T05:49:04.448Z,9.8
2019-05-03T05:50:05.141Z,9.8
2019-05-03T05:51:04.593Z,9.9
2019-05-03T05:52:05.115Z,9.9
2019-05-03T05:54:05.390Z,9.9
2019-05-03T05:54:05.405Z,10
2019-05-03T05:55:04.765Z,9.9
2019-05-03T05:56:05.162Z,9.9
2019-05-03T05:57:08.472Z,9.9
2019-05-03T05:58:08.533Z,9.9
2019-05-03T05:59:04.609Z,9.9
2019-05-03T06:00:05.054Z,9.9
2019-05-03T06:01:03.005Z,10
2019-05-03T06:02:05.045Z,10
2019-05-03T06:03:02.828Z,10.1
2019-05-03T06:04:02.923Z,10.2
2019-05-03T06:05:04.948Z,10.3
2019-05-03T06:06:02.831Z,10.3
2019-05-03T06:07:04.725Z,10.4
2019-05-03T06:08:04.967Z,10.4
2019-05-03T06:09:05.277Z,10.4
2019-05-03T06:10:05.436Z,10.6
2019-05-03T06:11:04.654Z,10.6
2019-05-03T06:12:04.686Z,10.6
2019-05-03T06:13:05.085Z,10.6
2019-05-03T06:14:05.190Z,10.6
2019-05-03T06:15:04.858Z,10.6
2019-05-03T06:16:05.307Z,10.3
2019-05-03T06:17:05.581Z,10.3
2019-05-03T06:18:05.906Z,10.3
2019-05-03T06:19:04.775Z,10.2
2019-05-03T06:20:05.473Z,10.3
2019-05-03T06:21:04.800Z,10.3
2019-05-03T06:22:05.257Z,10.3
2019-05-03T06:23:05.409Z,10.4
2019-05-03T06:24:04.619Z,10.3
2019-05-03T06:25:06.852Z,10.3
2019-05-03T06:26:05.145Z,10.3
2019-05-03T06:27:05.207Z,10.3
2019-05-03T06:28:21.133Z,10.3
2019-05-03T06:29:04.811Z,10.3
2019-05-03T06:30:04.840Z,10.3
2019-05-03T06:31:04.911Z,10.4
2019-05-03T06:32:05.482Z,10.4
2019-05-03T06:33:05.483Z,10.4
2019-05-03T06:34:04.669Z,10.2
2019-05-03T06:35:05.124Z,10.2
2019-05-03T06:36:05.053Z,10.2
2019-05-03T06:37:04.654Z,10.1
2019-05-03T06:38:05.074Z,10.2
2019-05-03T06:39:08.478Z,10.1
2019-05-03T06:40:06.373Z,10.1
2019-05-03T06:41:04.913Z,10.3
2019-05-03T06:42:09.601Z,10.3
2019-05-03T06:43:13.057Z,10.3
2019-05-03T06:44:04.496Z,10.3
2019-05-03T06:45:11.946Z,10.4
2019-05-03T06:46:02.879Z,10.4
2019-05-03T06:47:10.616Z,10.3
2019-05-03T06:48:05.657Z,10.4
2019-05-03T06:49:10.162Z,10.4
2019-05-03T06:50:02.967Z,10.3
2019-05-03T06:51:12.863Z,10.4
2019-05-03T06:52:06.086Z,10.3
2019-05-03T06:53:12.967Z,10.3
2019-05-03T06:54:05.214Z,10.3
2019-05-03T06:55:10.952Z,10.3
2019-05-03T06:56:04.772Z,10.3
2019-05-03T06:57:51.916Z,10.3
2019-05-03T06:59:05.375Z,10.3
2019-05-03T07:00:05.461Z,10.3
2019-05-03T07:01:04.804Z,10.3
2019-05-03T07:02:03.175Z,10.3
2019-05-03T07:03:05.098Z,10.4
2019-05-03T07:04:05.278Z,10.3
2019-05-03T07:05:05.244Z,10.4
2019-05-03T07:06:04.665Z,10.3
2019-05-03T07:07:05.418Z,10.4
2019-05-03T07:08:05.351Z,10.4
2019-05-03T07:09:05.493Z,10.4
2019-05-03T07:10:05.228Z,10.5
2019-05-03T07:11:05.433Z,10.5
2019-05-03T07:12:04.697Z,10.5
2019-05-03T07:13:07.102Z,10.6
2019-05-03T07:14:05.482Z,10.6
2019-05-03T07:15:05.368Z,10.6
2019-05-03T07:16:04.872Z,10.6
2019-05-03T07:17:05.780Z,10.7
2019-05-03T07:18:02.961Z,10.8
2019-05-03T07:19:04.636Z,10.8
2019-05-03T07:20:04.835Z,10.8
2019-05-03T07:21:05.067Z,10.8
2019-05-03T07:22:05.279Z,10.9
2019-05-03T07:23:04.515Z,10.9
2019-05-03T07:24:05.569Z,10.9
2019-05-03T07:25:04.836Z,10.9
2019-05-03T07:26:05.583Z,10.9
2019-05-03T07:27:05.610Z,10.8
2019-05-03T07:28:04.553Z,10.7
2019-05-03T07:29:05.179Z,10.8
2019-05-03T07:30:05.001Z,10.8
2019-05-03T07:31:05.003Z,10.8
2019-05-03T07:32:05.394Z,10.8
2019-05-03T07:33:05.017Z,10.8
2019-05-03T07:34:05.385Z,10.8
2019-05-03T07:35:04.660Z,10.7
2019-05-03T07:36:05.628Z,10.8
2019-05-03T07:37:06.125Z,10.9
2019-05-03T07:38:05.568Z,10.9
2019-05-03T07:39:05.508Z,11.1
2019-05-03T07:40:04.890Z,11.1
2019-05-03T07:41:05.507Z,11.2
2019-05-03T07:42:05.653Z,11.2
2019-05-03T07:43:04.677Z,11.3
2019-05-03T07:44:05.519Z,11.3
2019-05-03T07:45:05.136Z,11.3
2019-05-03T07:46:02.804Z,11.2
2019-05-03T07:47:05.096Z,11.3
2019-05-03T07:48:04.829Z,11.3
2019-05-03T07:49:05.296Z,11.3
2019-05-03T07:50:05.152Z,11.2
2019-05-03T07:51:05.782Z,11.2
2019-05-03T07:52:06.108Z,11.3
2019-05-03T07:53:04.857Z,11.3
2019-05-03T07:54:04.913Z,11.3
2019-05-03T07:55:04.770Z,11.3
2019-05-03T07:56:05.421Z,11.3
2019-05-03T07:57:05.382Z,11.4
2019-05-03T07:58:04.768Z,11.4
2019-05-03T07:59:06.590Z,11.3
2019-05-03T08:00:05.329Z,11.4
2019-05-03T08:01:10.245Z,11.4
2019-05-03T08:02:05.923Z,11.4
2019-05-03T08:03:05.180Z,11.4
2019-05-03T08:04:05.681Z,11.4
2019-05-03T08:05:05.392Z,11.4
2019-05-03T08:06:05.072Z,11.5
2019-05-03T08:07:04.734Z,11.5
2019-05-03T08:08:04.964Z,11.6
2019-05-03T08:09:05.036Z,11.6
2019-05-03T08:10:05.634Z,11.8
2019-05-03T08:11:05.503Z,11.8
2019-05-03T08:12:05.347Z,11.8
2019-05-03T08:13:04.897Z,11.8
2019-05-03T08:14:05.133Z,11.8
2019-05-03T08:15:05.423Z,11.7
2019-05-03T08:16:02.813Z,11.7
2019-05-03T08:17:05.337Z,11.6
2019-05-03T08:18:05.067Z,11.6
2019-05-03T08:19:05.214Z,11.4
2019-05-03T08:20:05.406Z,11.4
2019-05-03T08:21:06.148Z,11.4
2019-05-03T08:22:05.199Z,11.3
2019-05-03T08:23:05.514Z,11.3
2019-05-03T08:24:04.827Z,11.3
2019-05-03T08:25:05.580Z,11.3
2019-05-03T08:26:06.342Z,11.3
2019-05-03T08:27:05.335Z,11.3
2019-05-03T08:28:05.436Z,11.3
2019-05-03T08:29:19.673Z,11.3
2019-05-03T08:30:04.795Z,11.2
2019-05-03T08:31:04.932Z,11.2
2019-05-03T08:32:05.227Z,11.1
2019-05-03T08:33:05.669Z,11.2
2019-05-03T08:34:05.050Z,11.2
2019-05-03T08:35:04.947Z,11.1
2019-05-03T08:36:05.029Z,11
2019-05-03T08:37:05.448Z,11
2019-05-03T08:38:05.111Z,11
2019-05-03T08:39:05.623Z,11
2019-05-03T08:40:02.903Z,10.9
2019-05-03T08:41:05.380Z,10.9
2019-05-03T08:42:04.987Z,10.9
2019-05-03T08:43:05.342Z,10.9
2019-05-03T08:44:02.620Z,10.8
2019-05-03T08:45:08.209Z,10.7
2019-05-03T08:46:04.817Z,10.5
2019-05-03T08:47:05.438Z,10.5
2019-05-03T08:48:05.787Z,10.3
2019-05-03T08:49:05.425Z,10.2
2019-05-03T08:50:05.722Z,10.1
2019-05-03T08:51:04.823Z,10.1
2019-05-03T08:52:05.735Z,10.1
2019-05-03T08:53:05.400Z,10.1
2019-05-03T08:54:04.872Z,9.9
2019-05-03T08:55:05.402Z,9.9
2019-05-03T08:56:05.504Z,9.9
2019-05-03T08:57:06.415Z,9.9
2019-05-03T08:58:05.482Z,10
2019-05-03T08:59:04.890Z,10.1
2019-05-03T09:00:05.401Z,10.2
2019-05-03T09:01:05.829Z,10.3
2019-05-03T09:02:17.993Z,10.2
2019-05-03T09:03:05.436Z,10.4
2019-05-03T09:04:05.313Z,10.3
2019-05-03T09:05:05.428Z,10.4
2019-05-03T09:06:04.894Z,10.4
2019-05-03T09:07:02.698Z,10.6
2019-05-03T09:08:05.957Z,10.6
2019-05-03T09:09:04.884Z,10.6
2019-05-03T09:10:05.646Z,10.8
2019-05-03T09:11:05.217Z,10.9
2019-05-03T09:12:04.897Z,11
2019-05-03T09:13:06.955Z,11.1
2019-05-03T09:14:04.777Z,11.1
2019-05-03T09:15:04.892Z,11
2019-05-03T09:16:05.748Z,11
2019-05-03T09:17:05.138Z,11.1
2019-05-03T09:18:05.060Z,11.2
2019-05-03T09:19:05.944Z,11.2
2019-05-03T09:20:05.332Z,11.3
2019-05-03T09:21:05.467Z,11.3
2019-05-03T09:22:06.371Z,11.3
2019-05-03T09:23:05.678Z,11.4
2019-05-03T09:24:04.875Z,11.3
2019-05-03T09:25:05.135Z,11.3
2019-05-03T09:26:05.034Z,11.4
2019-05-03T09:27:05.752Z,11.3
2019-05-03T09:28:05.013Z,11.4
2019-05-03T09:29:05.758Z,11.7
2019-05-03T09:30:05.205Z,11.8
2019-05-03T09:31:04.807Z,12
2019-05-03T09:32:05.429Z,12
2019-05-03T09:34:08.451Z,12.1
2019-05-03T09:34:35.303Z,12.1
2019-05-03T09:36:05.544Z,11.9
2019-05-03T09:37:05.010Z,11.7
2019-05-03T09:38:02.953Z,11.9
2019-05-03T09:39:05.216Z,11.9
2019-05-03T09:40:04.620Z,12.4
2019-05-03T09:41:05.387Z,12.6
2019-05-03T09:42:04.973Z,12.7
2019-05-03T09:43:04.826Z,12.7
2019-05-03T09:44:04.925Z,12.9
2019-05-03T09:45:05.099Z,12.9
2019-05-03T09:46:05.327Z,13
2019-05-03T09:47:05.871Z,12.9
2019-05-03T09:48:02.707Z,13.1
2019-05-03T09:49:16.551Z,13.2
2019-05-03T09:50:04.939Z,13.4
2019-05-03T09:51:05.340Z,13.4
2019-05-03T09:52:08.784Z,13.1
2019-05-03T09:53:07.509Z,12.9
2019-05-03T09:54:05.467Z,12.7
2019-05-03T09:55:05.381Z,12.6
2019-05-03T09:56:05.214Z,12.5
2019-05-03T09:57:02.881Z,12.5
2019-05-03T09:58:05.791Z,12.4
2019-05-03T09:59:05.536Z,12.4
2019-05-03T10:00:05.142Z,12.4
2019-05-03T10:01:08.738Z,12.3
2019-05-03T10:02:05.181Z,12.2
2019-05-03T10:03:02.834Z,12.1
2019-05-03T10:04:02.957Z,12.2
2019-05-03T10:05:03.276Z,12.2
2019-05-03T10:06:03.061Z,12.1
2019-05-03T10:07:02.875Z,12
2019-05-03T10:08:05.518Z,12.1
2019-05-03T10:09:05.504Z,12.2
2019-05-03T10:10:05.864Z,12.3
2019-05-03T10:11:05.818Z,12.3
2019-05-03T10:12:05.717Z,12.3
2019-05-03T10:13:23.659Z,12.3
2019-05-03T10:14:04.849Z,12.3
2019-05-03T10:15:06.692Z,12.2
2019-05-03T10:16:06.358Z,12.2
2019-05-03T10:17:05.602Z,12.1
2019-05-03T10:18:11.317Z,12.1
2019-05-03T10:19:03.178Z,12.1
2019-05-03T10:20:03.595Z,12.1
2019-05-03T10:21:05.783Z,11.9
2019-05-03T10:22:05.987Z,11.9
2019-05-03T10:23:06.450Z,11.8
2019-05-03T10:24:03.212Z,11.6
2019-05-03T10:25:05.119Z,11.7
2019-05-03T10:26:05.401Z,11.6
2019-05-03T10:27:02.942Z,11.7
2019-05-03T10:28:02.995Z,11.7
2019-05-03T10:29:05.639Z,11.7
2019-05-03T10:30:16.599Z,11.8
2019-05-03T10:31:08.111Z,11.8
2019-05-03T10:32:03.102Z,11.8
2019-05-03T10:33:03.111Z,11.8
2019-05-03T10:34:02.888Z,11.8
2019-05-03T10:35:05.884Z,11.9
2019-05-03T10:36:05.736Z,11.9
2019-05-03T10:37:05.401Z,11.9
2019-05-03T10:38:06.010Z,11.9
2019-05-03T10:39:04.979Z,11.9
2019-05-03T10:40:08.371Z,12
2019-05-03T10:41:02.875Z,12
2019-05-03T10:42:04.975Z,11.9
2019-05-03T10:43:05.024Z,12.1
2019-05-03T10:44:06.225Z,12.1
2019-05-03T10:45:04.868Z,12.1
2019-05-03T10:46:05.392Z,12.2
2019-05-03T10:47:05.777Z,12.2
2019-05-03T10:48:05.055Z,12.2
2019-05-03T10:49:05.935Z,12.3
2019-05-03T10:50:04.876Z,12.2
2019-05-03T10:51:04.959Z,12.3
2019-05-03T10:52:05.949Z,12.2
2019-05-03T10:53:05.427Z,12.3
2019-05-03T10:54:05.395Z,12.2
2019-05-03T10:55:05.507Z,12.2
2019-05-03T10:56:05.241Z,12.1
2019-05-03T10:57:05.499Z,12.2
2019-05-03T10:58:05.449Z,12.1
2019-05-03T10:59:03.110Z,12.1
2019-05-03T11:00:05.198Z,12
2019-05-03T11:01:05.279Z,11.9
2019-05-03T11:02:03.315Z,11.8
2019-05-03T11:03:05.466Z,11.8
2019-05-03T11:04:05.521Z,11.7
2019-05-03T11:05:05.351Z,11.7
2019-05-03T11:06:05.053Z,11.6
2019-05-03T11:07:05.759Z,11.6
2019-05-03T11:08:05.169Z,11.4
2019-05-03T11:09:06.049Z,11.5
2019-05-03T11:10:05.437Z,11.4
2019-05-03T11:11:02.921Z,11.4
2019-05-03T11:12:05.545Z,11.4
2019-05-03T11:13:03.018Z,11.3
2019-05-03T11:14:05.789Z,11.3
2019-05-03T11:15:02.798Z,11.2
2019-05-03T11:16:05.723Z,11.1
2019-05-03T11:17:02.914Z,11.2
2019-05-03T11:18:02.882Z,11.2
2019-05-03T11:19:02.896Z,11.3
2019-05-03T11:20:05.444Z,11.3
2019-05-03T11:21:05.332Z,11.3
2019-05-03T11:22:05.793Z,11.3
2019-05-03T11:23:06.264Z,11.3
2019-05-03T11:24:03.690Z,11.2
2019-05-03T11:25:05.289Z,11.1
2019-05-03T11:26:03.644Z,11.1
2019-05-03T11:27:03.737Z,11.1
2019-05-03T11:28:05.045Z,11.1
2019-05-03T11:29:05.448Z,11.1
2019-05-03T11:30:05.078Z,11.1
2019-05-03T11:31:05.159Z,11.1
2019-05-03T11:32:11.613Z,11.1
2019-05-03T11:33:03.277Z,11.1
2019-05-03T11:34:03.420Z,11
2019-05-03T11:35:04.723Z,11
2019-05-03T11:36:04.546Z,11
2019-05-03T11:37:05.079Z,10.9
2019-05-03T11:38:05.673Z,10.9
2019-05-03T11:39:05.066Z,10.8
2019-05-03T11:40:05.259Z,10.8
2019-05-03T11:41:05.073Z,10.9
2019-05-03T11:42:04.832Z,10.8
2019-05-03T11:43:04.850Z,10.9
2019-05-03T11:44:03.105Z,10.8
2019-05-03T11:45:03.298Z,10.8
2019-05-03T11:46:02.903Z,10.8
2019-05-03T11:47:03.029Z,10.7
2019-05-03T11:48:03.180Z,10.7
2019-05-03T11:49:03.045Z,10.7
2019-05-03T11:50:02.828Z,10.7
2019-05-03T11:51:02.701Z,10.8
2019-05-03T11:52:03.035Z,10.9
2019-05-03T11:53:05.375Z,10.9
2019-05-03T11:54:06.039Z,10.9
2019-05-03T11:55:12.490Z,10.8
2019-05-03T11:56:02.725Z,10.8
2019-05-03T11:57:05.206Z,10.9
2019-05-03T11:58:03.016Z,11
2019-05-03T11:59:05.438Z,11.1
2019-05-03T12:00:05.511Z,11.2
2019-05-03T12:01:20.043Z,11.1
2019-05-03T12:02:04.926Z,11.2
2019-05-03T12:03:05.138Z,11.3
2019-05-03T12:04:05.181Z,11.5
2019-05-03T12:05:05.153Z,11.5
2019-05-03T12:06:05.147Z,11.6
2019-05-03T12:07:06.112Z,11.6
2019-05-03T12:08:02.897Z,11.8
2019-05-03T12:09:05.801Z,11.8
2019-05-03T12:10:44.017Z,11.9
2019-05-03T12:12:05.054Z,11.9
2019-05-03T12:13:05.377Z,12.1
2019-05-03T12:14:07.035Z,12.1
2019-05-03T12:15:04.460Z,12.1
2019-05-03T12:16:26.639Z,12
2019-05-03T12:17:28.987Z,11.9
2019-05-03T12:18:07.524Z,12.1
2019-05-03T12:19:24.787Z,12.1
2019-05-03T12:20:09.250Z,12.1
2019-05-03T12:21:09.790Z,12.2
2019-05-03T12:22:07.462Z,12.2
2019-05-03T12:23:07.594Z,12.3
2019-05-03T12:24:07.448Z,12.3
2019-05-03T12:25:11.630Z,12.3
2019-05-03T12:26:14.386Z,12.4
2019-05-03T12:27:04.881Z,12.3
2019-05-03T12:28:06.139Z,12.3
2019-05-03T12:29:04.773Z,12.4
2019-05-03T12:30:05.188Z,12.4
2019-05-03T12:31:05.219Z,12.4
2019-05-03T12:32:05.425Z,12.4
2019-05-03T12:33:06.401Z,12.4
2019-05-03T12:34:06.225Z,12.4
2019-05-03T12:35:06.351Z,12.4
2019-05-03T12:36:05.710Z,12.4
2019-05-03T12:37:05.443Z,12.4
2019-05-03T12:38:05.875Z,12.6
2019-05-03T12:39:05.790Z,12.6
2019-05-03T12:40:05.717Z,12.4
2019-05-03T12:41:05.898Z,12.4
2019-05-03T12:42:06.020Z,12.3
2019-05-03T12:43:02.738Z,12.2
2019-05-03T12:44:04.801Z,12.1
2019-05-03T12:45:04.752Z,11.9
2019-05-03T12:46:05.397Z,11.7
2019-05-03T12:47:06.279Z,11.7
2019-05-03T12:48:05.312Z,11.6
2019-05-03T12:49:05.441Z,11.6
2019-05-03T12:50:05.627Z,11.4
2019-05-03T12:51:07.666Z,11.3
2019-05-03T12:52:05.623Z,11.1
2019-05-03T12:53:05.187Z,10.9
2019-05-03T12:54:05.039Z,10.9
2019-05-03T12:55:04.700Z,10.8
2019-05-03T12:56:15.662Z,10.8
2019-05-03T12:57:05.366Z,10.8
2019-05-03T12:58:06.651Z,10.7
2019-05-03T12:59:06.072Z,10.8
2019-05-03T13:00:05.213Z,10.7
2019-05-03T13:01:05.147Z,10.6
2019-05-03T13:02:35.937Z,10.7
2019-05-03T13:04:03.262Z,10.6
2019-05-03T13:05:04.973Z,10.5
2019-05-03T13:06:07.586Z,10.5
2019-05-03T13:07:03.042Z,10.5
2019-05-03T13:08:05.730Z,10.5
2019-05-03T13:09:03.054Z,10.4
2019-05-03T13:10:05.454Z,10.4
2019-05-03T13:11:05.580Z,10.3
2019-05-03T13:12:05.089Z,10.3
2019-05-03T13:13:02.957Z,10.3
2019-05-03T13:14:04.962Z,10.3
2019-05-03T13:15:05.203Z,10.4
2019-05-03T13:16:04.827Z,10.4
2019-05-03T13:17:04.929Z,10.5
2019-05-03T13:18:05.123Z,10.6
2019-05-03T13:19:03.071Z,10.6
2019-05-03T13:20:05.094Z,10.6
2019-05-03T13:21:06.421Z,10.7
2019-05-03T13:22:03.738Z,10.7
2019-05-03T13:23:05.671Z,10.8
2019-05-03T13:24:05.709Z,11.1
2019-05-03T13:25:03.978Z,11.4
2019-05-03T13:26:06.243Z,11.6
2019-05-03T13:27:05.786Z,11.6
2019-05-03T13:28:05.667Z,11.7
2019-05-03T13:29:06.114Z,11.8
2019-05-03T13:30:05.311Z,12
2019-05-03T13:31:06.298Z,12.1